METAR

TAF

 




Rio de Janeiro / Galeão - Antonio Carlos Jobim, RJ - SBGL


17 de Abril de 2014 às 09:00 (UTC)


Tempo:

Céu parcialmente nublado

Temperatura:

22ºC

Umidade Relativa:

88%

Localização:
Ajuste do Altímetro:

1016 hPa

Visibilidade Horizontal Predominante:

> 10 Km

Direção e Velocidade do Vento:

Vento calmo.


Observação Meteorológica:

METAR SBGL 170900Z 00000KT 9999 SCT005 BKN010 22/20 Q1016=